createdAt,value
2018-07-06T00:02:30.600Z,99.90
2018-07-06T00:05:10.126Z,99.90
2018-07-06T00:07:49.804Z,99.90
2018-07-06T00:10:29.462Z,99.90
2018-07-06T00:13:09.104Z,99.90
2018-07-06T00:15:48.810Z,99.90
2018-07-06T00:18:28.485Z,99.90
2018-07-06T00:21:08.165Z,99.90
2018-07-06T00:26:22.249Z,99.90
2018-07-06T00:29:01.948Z,99.90
2018-07-06T00:31:41.707Z,99.90
2018-07-06T00:34:21.196Z,99.90
2018-07-06T00:37:00.955Z,99.90
2018-07-06T00:39:41.173Z,99.90
2018-07-06T00:42:20.918Z,99.90
2018-07-06T00:45:00.474Z,99.90
2018-07-06T00:47:39.899Z,99.90
2018-07-06T00:50:19.377Z,99.90
2018-07-06T00:52:58.873Z,99.90
2018-07-06T00:55:38.385Z,99.90
2018-07-06T00:58:22.918Z,99.90
2018-07-06T01:01:02.589Z,99.90
2018-07-06T01:03:42.598Z,99.90
2018-07-06T01:06:22.172Z,99.90
2018-07-06T01:09:01.792Z,99.90
2018-07-06T01:11:41.414Z,99.90
2018-07-06T01:14:21.030Z,99.90
2018-07-06T01:17:00.574Z,99.90
2018-07-06T01:19:40.205Z,99.90
2018-07-06T01:22:19.799Z,99.90
2018-07-06T01:24:59.266Z,99.90
2018-07-06T01:27:38.882Z,99.90
2018-07-06T01:30:18.489Z,99.90
2018-07-06T01:32:58.130Z,99.90
2018-07-06T01:35:37.582Z,99.90
2018-07-06T01:38:17.203Z,99.90
2018-07-06T01:40:56.691Z,99.90
2018-07-06T01:43:36.345Z,99.90
2018-07-06T01:46:15.977Z,99.90
2018-07-06T01:48:55.771Z,99.90
2018-07-06T01:51:35.569Z,99.90
2018-07-06T01:54:15.176Z,99.90
2018-07-06T01:56:54.833Z,99.90
2018-07-06T01:59:34.913Z,99.90
2018-07-06T02:02:14.625Z,99.90
2018-07-06T02:07:27.993Z,99.90
2018-07-06T02:10:07.526Z,99.90
2018-07-06T02:12:47.239Z,99.90
2018-07-06T02:15:26.899Z,99.90
2018-07-06T02:20:40.601Z,99.90
2018-07-06T02:23:20.294Z,99.90
2018-07-06T02:26:00.484Z,99.90
2018-07-06T02:28:40.116Z,99.90
2018-07-06T02:31:19.863Z,99.90
2018-07-06T02:33:59.530Z,99.90
2018-07-06T02:36:39.299Z,99.90
2018-07-06T02:39:19.070Z,99.90
2018-07-06T02:41:58.743Z,99.90
2018-07-06T02:44:38.373Z,99.90
2018-07-06T02:47:18.090Z,99.90
2018-07-06T02:49:57.817Z,99.90
2018-07-06T02:52:37.603Z,99.90
2018-07-06T02:55:17.465Z,99.90
2018-07-06T02:57:57.020Z,99.90
2018-07-06T03:00:36.797Z,99.90
2018-07-06T03:03:16.705Z,99.90
2018-07-06T03:05:56.357Z,99.90
2018-07-06T03:08:35.990Z,99.90
2018-07-06T03:11:15.771Z,99.90
2018-07-06T03:13:55.553Z,99.90
2018-07-06T03:16:35.346Z,99.90
2018-07-06T03:19:14.930Z,99.90
2018-07-06T03:21:54.751Z,99.90
2018-07-06T03:24:34.343Z,99.90
2018-07-06T03:27:14.127Z,99.90
2018-07-06T03:29:53.598Z,99.90
2018-07-06T03:32:33.374Z,99.90
2018-07-06T03:35:13.432Z,99.90
2018-07-06T03:37:53.103Z,99.90
2018-07-06T03:40:32.628Z,99.90
2018-07-06T03:43:12.177Z,99.90
2018-07-06T03:45:51.817Z,99.90
2018-07-06T03:48:31.445Z,99.90
2018-07-06T03:51:11.162Z,99.90
2018-07-06T03:53:50.942Z,99.90
2018-07-06T03:56:30.593Z,99.90
2018-07-06T03:59:10.247Z,99.90
2018-07-06T04:01:49.872Z,99.90
2018-07-06T04:04:29.792Z,99.90
2018-07-06T04:07:09.555Z,99.90
2018-07-06T04:09:49.106Z,99.90
2018-07-06T04:12:28.727Z,99.90
2018-07-06T04:17:41.937Z,99.90
2018-07-06T04:20:21.723Z,99.90
2018-07-06T04:23:01.358Z,99.90
2018-07-06T04:25:40.991Z,99.90
2018-07-06T04:28:20.769Z,99.90
2018-07-06T04:31:00.538Z,99.90
2018-07-06T04:33:40.493Z,99.90
2018-07-06T04:36:20.354Z,99.90
2018-07-06T04:39:00.355Z,99.90
2018-07-06T04:41:40.088Z,99.90
2018-07-06T04:44:19.933Z,99.90
2018-07-06T04:46:59.598Z,99.90
2018-07-06T04:49:39.287Z,99.90
2018-07-06T04:52:19.323Z,99.90
2018-07-06T04:54:59.203Z,99.90
2018-07-06T04:57:39.050Z,99.90
2018-07-06T05:00:18.816Z,99.90
2018-07-06T05:02:58.450Z,99.90
2018-07-06T05:05:38.123Z,99.90
2018-07-06T05:08:17.884Z,99.90
2018-07-06T05:10:57.599Z,99.90
2018-07-06T05:13:37.371Z,99.90
2018-07-06T05:16:17.041Z,99.90
2018-07-06T05:18:56.695Z,99.90
2018-07-06T05:21:36.500Z,99.90
2018-07-06T05:24:16.294Z,99.90
2018-07-06T05:26:55.965Z,99.90
2018-07-06T05:32:09.962Z,99.90
2018-07-06T05:34:49.797Z,99.90
2018-07-06T05:37:29.560Z,99.90
2018-07-06T05:40:09.188Z,99.90
2018-07-06T05:42:48.938Z,99.90
2018-07-06T05:45:28.670Z,99.90
2018-07-06T05:48:08.511Z,99.90
2018-07-06T05:50:48.125Z,99.90
2018-07-06T05:53:30.731Z,99.90
2018-07-06T05:58:48.146Z,99.90
2018-07-06T06:01:27.762Z,99.90
2018-07-06T06:04:07.492Z,99.90
2018-07-06T06:06:47.157Z,99.90
2018-07-06T06:09:15.947Z,99.90
2018-07-06T06:11:44.518Z,99.90
2018-07-06T06:14:13.072Z,99.90
2018-07-06T06:16:42.132Z,99.90
2018-07-06T06:19:10.646Z,99.90
2018-07-06T06:21:39.116Z,99.90
2018-07-06T06:24:07.690Z,99.90
2018-07-06T06:26:36.223Z,99.90
2018-07-06T06:29:05.424Z,99.90
2018-07-06T06:31:34.044Z,99.90
2018-07-06T06:34:03.440Z,99.90
2018-07-06T06:36:32.656Z,99.90
2018-07-06T06:39:01.477Z,99.90
2018-07-06T06:41:30.215Z,99.90
2018-07-06T06:43:59.550Z,99.90
2018-07-06T06:46:28.162Z,99.90
2018-07-06T06:48:56.682Z,99.90
2018-07-06T06:51:26.016Z,99.90
2018-07-06T06:53:54.570Z,99.90
2018-07-06T06:56:23.133Z,99.90
2018-07-06T06:58:51.809Z,99.90
2018-07-06T07:01:21.043Z,99.90
2018-07-06T07:03:49.679Z,99.90
2018-07-06T07:06:18.449Z,99.90
2018-07-06T07:08:47.014Z,99.90
2018-07-06T07:11:16.266Z,99.90
2018-07-06T07:13:44.964Z,99.90
2018-07-06T07:16:13.636Z,99.90
2018-07-06T07:18:42.193Z,99.90
2018-07-06T07:21:11.707Z,99.90
2018-07-06T07:23:40.365Z,99.90
2018-07-06T07:26:08.876Z,99.90
2018-07-06T07:28:38.129Z,99.90
2018-07-06T07:31:06.630Z,99.90
2018-07-06T07:36:04.022Z,99.90
2018-07-06T07:38:32.673Z,99.90
2018-07-06T07:41:02.215Z,99.90
2018-07-06T07:43:30.773Z,99.90
2018-07-06T07:45:59.570Z,99.90
2018-07-06T07:48:28.088Z,99.90
2018-07-06T07:53:08.587Z,99.90
2018-07-06T07:55:37.360Z,99.90
2018-07-06T07:58:05.996Z,99.90
2018-07-06T08:00:34.647Z,99.90
2018-07-06T08:03:03.162Z,99.90
2018-07-06T08:05:31.689Z,99.90
2018-07-06T08:08:00.252Z,99.90
2018-07-06T08:10:28.787Z,99.90
2018-07-06T08:12:57.898Z,99.90
2018-07-06T08:15:26.482Z,99.90
2018-07-06T08:17:55.709Z,99.90
2018-07-06T08:20:24.463Z,99.90
2018-07-06T08:22:53.289Z,99.90
2018-07-06T08:25:22.007Z,99.90
2018-07-06T08:27:50.628Z,99.90
2018-07-06T08:30:19.863Z,99.90
2018-07-06T08:32:49.060Z,99.90
2018-07-06T08:35:28.598Z,99.90
2018-07-06T08:38:02.704Z,99.90
2018-07-06T08:40:31.223Z,99.90
2018-07-06T08:43:00.657Z,99.90
2018-07-06T08:45:30.524Z,99.90
2018-07-06T08:47:59.243Z,99.90
2018-07-06T08:50:28.616Z,99.90
2018-07-06T08:52:59.490Z,99.90
2018-07-06T08:55:28.772Z,99.90
2018-07-06T08:57:58.600Z,99.90
2018-07-06T09:00:27.119Z,99.90
2018-07-06T09:03:01.240Z,99.90
2018-07-06T09:05:30.976Z,99.90
2018-07-06T09:08:01.273Z,99.90
2018-07-06T09:10:30.559Z,99.90
2018-07-06T09:15:37.865Z,99.90
2018-07-06T09:18:13.700Z,99.90
2018-07-06T09:20:42.363Z,99.90
2018-07-06T09:23:13.637Z,99.90
2018-07-06T09:28:26.871Z,99.90
2018-07-06T09:30:55.520Z,99.90
2018-07-06T09:33:25.267Z,99.90
2018-07-06T09:35:53.881Z,99.90
2018-07-06T09:38:22.554Z,99.90
2018-07-06T09:40:51.076Z,99.90
2018-07-06T09:43:20.368Z,99.90
2018-07-06T09:45:48.933Z,99.90
2018-07-06T09:50:46.251Z,99.90
2018-07-06T09:53:15.071Z,99.90
2018-07-06T09:55:43.590Z,99.10
2018-07-06T09:58:12.150Z,99.90
2018-07-06T10:00:45.969Z,99.90
2018-07-06T10:03:14.466Z,99.90
2018-07-06T10:05:43.115Z,99.50
2018-07-06T10:08:11.666Z,99.20
2018-07-06T10:10:40.186Z,98.60
2018-07-06T10:13:08.713Z,99.10
2018-07-06T10:15:38.043Z,98.20
2018-07-06T10:18:06.596Z,97.90
2018-07-06T10:20:35.514Z,97.90
2018-07-06T10:23:05.027Z,97.70
2018-07-06T10:25:33.954Z,97.20
2018-07-06T10:28:17.216Z,97.60
2018-07-06T10:31:11.580Z,97.30
2018-07-06T10:33:40.774Z,98.50
2018-07-06T10:36:09.480Z,97.60
2018-07-06T10:38:38.094Z,97.90
2018-07-06T10:41:06.737Z,98.90
2018-07-06T10:43:35.234Z,99.30
2018-07-06T10:46:03.848Z,98.60
2018-07-06T10:48:32.356Z,97.50
2018-07-06T10:51:00.874Z,97.50
2018-07-06T10:53:29.346Z,99.50
2018-07-06T10:55:58.599Z,99.90
2018-07-06T10:58:32.896Z,99.70
2018-07-06T11:01:05.658Z,99.20
2018-07-06T11:06:12.366Z,99.70
2018-07-06T11:08:45.850Z,98.80
2018-07-06T11:11:15.710Z,99.30
2018-07-06T11:13:44.692Z,99.20
2018-07-06T11:16:16.326Z,99.90
2018-07-06T11:18:46.284Z,99.90
2018-07-06T11:21:23.034Z,99.90
2018-07-06T11:23:53.793Z,99.90
2018-07-06T11:28:52.300Z,99.90
2018-07-06T11:31:20.959Z,99.90
2018-07-06T11:33:50.526Z,99.90
2018-07-06T11:36:19.037Z,99.90
2018-07-06T11:38:47.596Z,99.90
2018-07-06T11:41:16.266Z,99.90
2018-07-06T11:43:46.058Z,99.90
2018-07-06T11:46:16.184Z,99.90
2018-07-06T11:49:02.855Z,99.90
2018-07-06T11:51:31.485Z,99.90
2018-07-06T11:54:00.057Z,99.90
2018-07-06T11:56:28.691Z,99.90
2018-07-06T11:58:57.235Z,99.90
2018-07-06T12:01:25.941Z,99.90
2018-07-06T12:03:54.508Z,99.90
2018-07-06T12:09:09.756Z,99.90
2018-07-06T12:11:39.277Z,99.90
2018-07-06T12:14:12.174Z,99.90
2018-07-06T12:19:09.638Z,99.90
2018-07-06T12:21:42.767Z,99.90
2018-07-06T12:24:11.319Z,99.90
2018-07-06T12:26:39.815Z,99.90
2018-07-06T12:29:08.385Z,99.90
2018-07-06T12:31:36.859Z,99.90
2018-07-06T12:34:05.640Z,99.90
2018-07-06T12:36:34.757Z,99.90
2018-07-06T12:39:03.817Z,99.90
2018-07-06T12:41:32.488Z,99.90
2018-07-06T12:44:01.081Z,99.90
2018-07-06T12:46:29.562Z,99.90
2018-07-06T12:48:58.155Z,99.90
2018-07-06T12:51:26.922Z,99.90
2018-07-06T12:53:55.531Z,99.90
2018-07-06T12:56:23.983Z,99.90
2018-07-06T12:58:52.627Z,99.90
2018-07-06T13:01:21.174Z,99.90
2018-07-06T13:03:49.626Z,99.90
2018-07-06T13:06:18.183Z,99.90
2018-07-06T13:08:46.909Z,99.90
2018-07-06T13:11:16.196Z,99.90
2018-07-06T13:13:44.695Z,99.90
2018-07-06T13:16:13.253Z,99.90
2018-07-06T13:18:41.717Z,99.90
2018-07-06T13:21:10.290Z,99.90
2018-07-06T13:23:38.773Z,99.90
2018-07-06T13:26:07.352Z,99.90
2018-07-06T13:28:35.835Z,99.80
2018-07-06T13:31:04.484Z,99.70
2018-07-06T13:33:33.020Z,99.90
2018-07-06T13:36:01.496Z,99.90
2018-07-06T13:38:30.050Z,99.90
2018-07-06T13:41:04.849Z,99.90
2018-07-06T13:43:33.311Z,99.90
2018-07-06T13:46:02.002Z,99.90
2018-07-06T13:48:31.175Z,99.90
2018-07-06T13:50:59.766Z,99.90
2018-07-06T13:53:28.452Z,99.90
2018-07-06T13:55:56.931Z,99.90
2018-07-06T13:58:25.559Z,99.90
2018-07-06T14:00:54.407Z,99.90
2018-07-06T14:03:22.916Z,99.90
2018-07-06T14:05:51.543Z,98.90
2018-07-06T14:08:20.004Z,98.50
2018-07-06T14:10:48.699Z,98.40
2018-07-06T14:13:17.294Z,97.40
2018-07-06T14:15:45.915Z,98.50
2018-07-06T14:18:15.271Z,97.00
2018-07-06T14:20:43.789Z,94.80
2018-07-06T14:23:12.502Z,97.10
2018-07-06T14:25:41.061Z,98.00
2018-07-06T14:28:09.584Z,98.90
2018-07-06T14:30:39.096Z,96.10
2018-07-06T14:33:07.802Z,95.00
2018-07-06T14:35:36.436Z,95.60
2018-07-06T14:38:05.151Z,94.60
2018-07-06T14:40:34.496Z,94.90
2018-07-06T14:43:03.033Z,94.90
2018-07-06T14:45:35.714Z,94.10
2018-07-06T14:48:04.229Z,95.00
2018-07-06T14:50:32.862Z,94.90
2018-07-06T14:53:01.814Z,94.20
2018-07-06T14:55:30.474Z,90.70
2018-07-06T14:57:59.048Z,90.10
2018-07-06T15:00:28.602Z,89.20
2018-07-06T15:03:00.512Z,91.40
2018-07-06T15:05:29.904Z,90.20
2018-07-06T15:08:01.242Z,88.90
2018-07-06T15:10:34.394Z,89.90
2018-07-06T15:13:02.926Z,90.70
2018-07-06T15:15:31.485Z,91.80
2018-07-06T15:18:00.068Z,91.20
2018-07-06T15:20:29.685Z,91.80
2018-07-06T15:22:58.278Z,90.70
2018-07-06T15:25:26.790Z,91.00
2018-07-06T15:27:55.322Z,90.20
2018-07-06T15:30:23.814Z,89.80
2018-07-06T15:32:52.328Z,90.70
2018-07-06T15:35:28.212Z,89.40
2018-07-06T15:37:56.686Z,88.30
2018-07-06T15:40:25.258Z,90.10
2018-07-06T15:42:53.867Z,90.50
2018-07-06T15:45:25.070Z,90.90
2018-07-06T15:48:00.034Z,91.90
2018-07-06T15:50:28.505Z,91.30
2018-07-06T15:52:57.800Z,92.20
2018-07-06T15:55:26.514Z,91.40
2018-07-06T15:57:55.071Z,91.50
2018-07-06T16:00:33.981Z,91.70
2018-07-06T16:03:02.496Z,92.30
2018-07-06T16:05:31.405Z,92.90
2018-07-06T16:07:59.899Z,93.00
2018-07-06T16:10:28.382Z,93.20
2018-07-06T16:13:09.205Z,94.40
2018-07-06T16:15:37.714Z,94.10
2018-07-06T16:18:06.370Z,94.30
2018-07-06T16:23:03.281Z,94.60
2018-07-06T16:25:31.878Z,95.10
2018-07-06T16:28:00.453Z,94.50
2018-07-06T16:30:29.117Z,94.60
2018-07-06T16:32:57.896Z,94.80
2018-07-06T16:35:27.402Z,95.30
2018-07-06T16:38:02.191Z,94.80
2018-07-06T16:40:30.813Z,95.10
2018-07-06T16:43:00.035Z,95.50
2018-07-06T16:45:28.531Z,95.10
2018-07-06T16:47:57.321Z,95.70
2018-07-06T16:50:26.143Z,95.90
2018-07-06T16:52:54.658Z,96.10
2018-07-06T16:55:23.190Z,96.00
2018-07-06T16:57:51.658Z,96.10
2018-07-06T17:00:22.103Z,96.40
2018-07-06T17:03:07.813Z,96.20
2018-07-06T17:05:36.886Z,96.00
2018-07-06T17:10:35.444Z,95.90
2018-07-06T17:13:06.131Z,95.00
2018-07-06T17:18:12.365Z,95.50
2018-07-06T17:20:41.354Z,95.90
2018-07-06T17:23:09.900Z,95.30
2018-07-06T17:28:07.060Z,94.90
2018-07-06T17:33:03.799Z,95.50
2018-07-06T17:35:32.624Z,95.60
2018-07-06T17:38:01.130Z,95.70
2018-07-06T17:40:29.640Z,96.30
2018-07-06T17:42:58.165Z,96.00
2018-07-06T17:45:26.780Z,96.40
2018-07-06T17:47:55.396Z,95.90
2018-07-06T17:50:24.031Z,96.20
2018-07-06T17:52:52.755Z,96.40
2018-07-06T17:55:21.326Z,96.90
2018-07-06T17:57:49.785Z,96.10
2018-07-06T18:00:25.584Z,96.50
2018-07-06T18:02:54.186Z,96.80
2018-07-06T18:05:22.701Z,96.90
2018-07-06T18:07:51.253Z,96.40
2018-07-06T18:10:19.830Z,97.00
2018-07-06T18:12:48.412Z,97.40
2018-07-06T18:15:17.022Z,97.50
2018-07-06T18:17:45.561Z,97.90
2018-07-06T18:20:14.088Z,98.40
2018-07-06T18:22:43.640Z,98.30
2018-07-06T18:25:12.214Z,98.90
2018-07-06T18:27:40.718Z,99.60
2018-07-06T18:30:09.809Z,99.20
2018-07-06T18:32:38.550Z,99.60
2018-07-06T18:35:07.222Z,99.60
2018-07-06T18:37:36.084Z,99.90
2018-07-06T18:40:18.168Z,99.90
2018-07-06T18:43:05.750Z,99.50
2018-07-06T18:45:34.263Z,99.70
2018-07-06T18:48:02.750Z,99.70
2018-07-06T18:50:33.173Z,99.70
2018-07-06T18:53:03.386Z,99.90
2018-07-06T18:55:32.057Z,99.90
2018-07-06T18:58:16.315Z,99.90
2018-07-06T19:00:47.377Z,99.90
2018-07-06T19:03:16.708Z,99.30
2018-07-06T19:08:46.287Z,99.70
2018-07-06T19:11:15.089Z,99.70
2018-07-06T19:13:43.969Z,99.60
2018-07-06T19:16:12.526Z,99.90
2018-07-06T19:18:41.048Z,99.90
2018-07-06T19:21:09.578Z,99.90
2018-07-06T19:23:38.155Z,99.90
2018-07-06T19:26:06.797Z,99.90
2018-07-06T19:28:36.993Z,99.90
2018-07-06T19:31:05.616Z,99.90
2018-07-06T19:33:34.184Z,99.90
2018-07-06T19:36:02.723Z,99.90
2018-07-06T19:38:31.355Z,99.90
2018-07-06T19:40:59.966Z,99.90
2018-07-06T19:43:29.081Z,99.90
2018-07-06T19:48:25.868Z,99.90
2018-07-06T19:50:54.415Z,99.90
2018-07-06T19:53:22.991Z,99.90
2018-07-06T19:55:51.574Z,99.90
2018-07-06T19:58:20.122Z,99.90
2018-07-06T20:00:48.700Z,99.90
2018-07-06T20:03:17.172Z,99.90
2018-07-06T20:05:45.670Z,99.90
2018-07-06T20:08:16.038Z,99.90
2018-07-06T20:10:44.554Z,99.90
2018-07-06T20:13:13.390Z,99.90
2018-07-06T20:15:42.501Z,99.90
2018-07-06T20:18:11.044Z,99.90
2018-07-06T20:20:39.508Z,99.90
2018-07-06T20:23:08.093Z,99.90
2018-07-06T20:25:36.598Z,99.90
2018-07-06T20:28:09.591Z,99.90
2018-07-06T20:30:38.793Z,99.90
2018-07-06T20:33:08.253Z,99.90
2018-07-06T20:35:36.737Z,99.90
2018-07-06T20:38:05.971Z,99.90
2018-07-06T20:40:34.666Z,99.90
2018-07-06T20:43:03.115Z,99.90
2018-07-06T20:45:31.650Z,99.90
2018-07-06T20:48:00.274Z,99.90
2018-07-06T20:50:28.787Z,99.90
2018-07-06T20:52:57.856Z,99.90
2018-07-06T20:55:26.371Z,99.90
2018-07-06T20:57:54.959Z,99.90
2018-07-06T21:00:23.514Z,99.90
2018-07-06T21:02:52.178Z,99.90
2018-07-06T21:05:20.810Z,99.90
2018-07-06T21:07:49.308Z,99.90
2018-07-06T21:10:17.820Z,99.90
2018-07-06T21:12:46.321Z,99.90
2018-07-06T21:15:14.818Z,99.90
2018-07-06T21:17:43.346Z,99.90
2018-07-06T21:20:11.822Z,99.90
2018-07-06T21:25:08.509Z,99.90
2018-07-06T21:27:37.018Z,99.90
2018-07-06T21:30:05.550Z,99.90
2018-07-06T21:32:34.146Z,99.90
2018-07-06T21:35:02.887Z,99.90
2018-07-06T21:37:32.128Z,99.90
2018-07-06T21:40:00.625Z,99.90
2018-07-06T21:42:29.809Z,99.90
2018-07-06T21:44:58.314Z,99.90
2018-07-06T21:47:26.878Z,99.90
2018-07-06T21:49:56.411Z,99.90
2018-07-06T21:52:24.888Z,99.90
2018-07-06T21:54:53.380Z,99.90
2018-07-06T21:57:23.181Z,99.90
2018-07-06T21:59:51.701Z,99.90
2018-07-06T22:02:20.249Z,99.90
2018-07-06T22:04:48.763Z,99.90
2018-07-06T22:07:17.556Z,99.90
2018-07-06T22:09:46.218Z,99.90
2018-07-06T22:12:15.076Z,99.90
2018-07-06T22:14:43.573Z,99.90
2018-07-06T22:17:12.779Z,99.90
2018-07-06T22:19:41.401Z,99.90
2018-07-06T22:22:10.452Z,99.90
2018-07-06T22:24:39.576Z,99.90
2018-07-06T22:27:08.275Z,99.90
2018-07-06T22:29:36.984Z,99.90
2018-07-06T22:32:05.682Z,99.90
2018-07-06T22:34:34.405Z,99.90
2018-07-06T22:37:03.053Z,99.90
2018-07-06T22:39:31.579Z,99.90
2018-07-06T22:42:00.250Z,99.90
2018-07-06T22:44:29.580Z,99.90
2018-07-06T22:46:58.817Z,99.90
2018-07-06T22:49:28.059Z,99.90
2018-07-06T22:51:56.656Z,99.90
2018-07-06T22:54:25.371Z,99.90
2018-07-06T22:56:53.918Z,99.90
2018-07-06T22:59:22.758Z,99.90
2018-07-06T23:01:52.202Z,99.90
2018-07-06T23:04:20.821Z,99.90
2018-07-06T23:06:50.048Z,99.90
2018-07-06T23:09:18.803Z,99.90
2018-07-06T23:11:48.076Z,99.90
2018-07-06T23:14:17.406Z,99.90
2018-07-06T23:16:45.958Z,99.90
2018-07-06T23:19:14.637Z,99.90
2018-07-06T23:21:43.132Z,99.90
2018-07-06T23:24:11.709Z,99.90
2018-07-06T23:26:40.263Z,99.90
2018-07-06T23:29:08.908Z,99.90
2018-07-06T23:31:37.475Z,99.90
2018-07-06T23:34:06.115Z,99.90
2018-07-06T23:36:35.283Z,99.90
2018-07-06T23:39:10.686Z,99.90
2018-07-06T23:41:39.513Z,99.90
2018-07-06T23:46:36.314Z,99.90
2018-07-06T23:49:04.892Z,99.90
2018-07-06T23:51:33.538Z,99.90
2018-07-06T23:54:02.129Z,99.90
2018-07-06T23:56:30.673Z,99.90
2018-07-06T23:58:59.220Z,99.90
